Detall de PIREP

Printer-friendly versionPDF version

[2014/04/16 14:54:00]
Flight IATA:CT1004
Pilot Number:012
Company ICAO:CAT
Aircraft Type:B763/F
PAX:213
Departing Airport: EDDH
Destination Airport: LEBL
Alternate Airport:LEPA
Online: VATSIM
Route:BASUM UM170 KENUM UM615 GESLO UN852 DIVKO UN975 BISBA
Flight Level:F370
No Slew and time accel
No pause
Crash detect
Detect pilot in Cockpit between each 30 and 45 minutes
14:54 Zero fuel Weight: 260223 Lbs, Fuel Weight: 40332 Lbs
14:54 VATSIM:EDDH 161420Z VRB05KT CAVOK 13/M02 Q1029 NOSIG
14:54 VATSIM:LEBL 161430Z 13009KT 090V170 CAVOK 17/09 Q1019 NOSIG
14:54 EASTER CHARTER
14:56 Parking Brakes off
14:59 Take-off
14:59 Take off Weight: 299307 Lbs
14:59 Wind: 342º @ 005 Knots Heading: 333º
14:59 POS N53º 38´ 18´´ E009º 59´ 20´´
14:59 Gear Up: 181 Knots
14:59 Flaps:2 at 181 Knots
15:00 Flaps:1 at 211 Knots
15:00 Flaps:0 at 225 Knots
15:13 TOC
15:13 Fuel Weight: 32984Lb
15:14 Wind:337º@032 Knots Heading: 210º Ground Speed: 483 Knots Altitude 37490 ft
15:29 Wind:347º@037 Knots Heading: 243º Ground Speed: 473 Knots Altitude 37450 ft
15:44 Wind:356º@036 Knots Heading: 154º Ground Speed: 497 Knots Altitude 37381 ft
15:59 Wind:001º@043 Knots Heading: 223º Ground Speed: 495 Knots Altitude 37267 ft
16:14 Wind:359º@034 Knots Heading: 192º Ground Speed: 498 Knots Altitude 37217 ft
16:29 Wind:357º@033 Knots Heading: 216º Ground Speed: 492 Knots Altitude 37191 ft
16:37 TOD
16:37 Fuel Weight: 19449 Lb
16:44 Wind:355º@011 Knots Heading: 243º Ground Speed: 404 Knots Altitude 18047 ft
16:56 Flaps:1 at 213 Knots
16:57 Flaps:2 at 180 Knots
16:58 Flaps:3 at 177 Knots
16:58 Flaps:4 at 156 Knots
16:58 Gear Down: 157 Knots
16:59 Wind:091º@008 Knots Heading: 057º Ground Speed: 151 Knots Altitude 2752 ft
16:59 Flaps:5 at 147 Knots
17:00 Flaps:6at 136 Knots
17:03 TouchDown:Rate -204 ft/min Speed: 128 Knots
17:03 VATSIM:LEBL 161630Z 11007KT 070V150 CAVOK 17/09 Q1019 NOSIG
17:03 Land
17:03 Wind:104º@007 Knots
17:03 Heading: 067º
17:03 Flight Duration: 02:04
17:03 Landing Weight: 276927 Lbs
17:03 POS N41º 18´ 01´´ E002º 05´ 18´´
17:08 Parking brakes on
17:08 Block to Block Duration: 02:12
17:08 Final Fuel: 15941 Lbls
17:08 Spent Fuel: 24391 Lbls
17:08 Flight Length: 917 NM
17:08 TOD Land Length: 129 NM

Exportar CSV

Powered by Drupal - Modified by Danger4k